createdAt,value
2023-01-30T00:01:09.697Z,-6.00
2023-01-30T00:03:39.602Z,-6.00
2023-01-30T00:06:12.920Z,-6.00
2023-01-30T00:08:42.990Z,-6.00
2023-01-30T00:11:15.898Z,-6.10
2023-01-30T00:13:46.427Z,-6.00
2023-01-30T00:16:16.453Z,-6.00
2023-01-30T00:18:47.350Z,-6.00
2023-01-30T00:21:20.310Z,-6.00
2023-01-30T00:23:50.212Z,-6.00
2023-01-30T00:26:20.213Z,-6.00
2023-01-30T00:28:50.184Z,-5.90
2023-01-30T00:31:20.136Z,-5.90
2023-01-30T00:33:50.083Z,-6.00
2023-01-30T00:36:22.570Z,-5.90
2023-01-30T00:38:52.570Z,-6.00
2023-01-30T00:41:22.849Z,-6.00
2023-01-30T00:44:05.304Z,-6.00
2023-01-30T00:46:49.146Z,-6.00
2023-01-30T00:49:19.440Z,-5.90
2023-01-30T00:51:52.025Z,-5.80
2023-01-30T00:54:21.983Z,-5.80
2023-01-30T00:56:51.991Z,-5.70
2023-01-30T00:59:21.950Z,-5.70
2023-01-30T01:01:51.955Z,-5.60
2023-01-30T01:04:21.957Z,-5.50
2023-01-30T01:06:54.551Z,-5.40
2023-01-30T01:09:24.535Z,-4.70
2023-01-30T01:11:55.992Z,-5.20
2023-01-30T01:14:25.931Z,-5.10
2023-01-30T01:16:56.222Z,-4.90
2023-01-30T01:19:26.248Z,-4.90
2023-01-30T01:21:58.829Z,-4.80
2023-01-30T01:24:30.521Z,-4.70
2023-01-30T01:27:01.144Z,-4.70
2023-01-30T01:29:31.085Z,-4.60
2023-01-30T01:32:01.326Z,-4.50
2023-01-30T01:34:31.469Z,-4.40
2023-01-30T01:37:04.337Z,-4.40
2023-01-30T01:39:46.546Z,-4.40
2023-01-30T01:42:16.485Z,-4.30
2023-01-30T01:45:13.803Z,-4.30
2023-01-30T01:47:48.142Z,-4.20
2023-01-30T01:50:27.961Z,-4.20
2023-01-30T01:53:02.316Z,-4.10
2023-01-30T01:55:32.987Z,-4.00
2023-01-30T01:58:07.366Z,-4.00
2023-01-30T02:00:37.993Z,-3.90
2023-01-30T02:03:11.840Z,-3.80
2023-01-30T02:05:46.371Z,-3.70
2023-01-30T02:08:19.829Z,-3.70
2023-01-30T02:10:56.176Z,-3.60
2023-01-30T02:13:26.526Z,-3.60
2023-01-30T02:16:00.096Z,-3.50
2023-01-30T02:18:31.188Z,-3.50
2023-01-30T02:21:27.043Z,-3.40
2023-01-30T02:24:29.597Z,-3.30
2023-01-30T02:27:18.397Z,-3.30
2023-01-30T02:30:30.708Z,-3.50
2023-01-30T02:33:18.171Z,-3.10
2023-01-30T02:35:56.059Z,-3.10
2023-01-30T02:38:37.762Z,-3.10
2023-01-30T02:41:20.452Z,-3.10
2023-01-30T02:44:00.757Z,-3.00
2023-01-30T02:46:39.229Z,-3.00
2023-01-30T02:49:17.267Z,-3.00
2023-01-30T02:51:48.892Z,-2.90
2023-01-30T02:54:19.078Z,-2.90
2023-01-30T02:56:55.093Z,-2.90
2023-01-30T02:59:30.150Z,-2.80
2023-01-30T03:02:26.732Z,-2.80
2023-01-30T03:05:27.740Z,-2.70
2023-01-30T03:08:06.712Z,-2.70
2023-01-30T03:10:41.203Z,-2.60
2023-01-30T03:13:18.078Z,-2.60
2023-01-30T03:15:52.721Z,-2.60
2023-01-30T03:18:23.543Z,-2.60
2023-01-30T03:20:57.557Z,-2.50
2023-01-30T03:23:27.522Z,-2.50
2023-01-30T03:25:57.471Z,-2.50
2023-01-30T03:28:28.659Z,-2.50
2023-01-30T03:30:58.782Z,-2.40
2023-01-30T03:33:28.891Z,-2.40
2023-01-30T03:36:01.502Z,-2.40
2023-01-30T03:38:31.530Z,-2.30
2023-01-30T03:41:01.666Z,-2.30
2023-01-30T03:43:31.703Z,-2.30
2023-01-30T03:46:01.713Z,-2.20
2023-01-30T03:48:32.088Z,-2.20
2023-01-30T03:51:04.741Z,-2.20
2023-01-30T03:53:34.792Z,-0.50
2023-01-30T03:56:04.863Z,0.30
2023-01-30T03:58:37.101Z,-2.00
2023-01-30T04:01:19.507Z,-2.00
2023-01-30T04:37:19.699Z,-1.80
2023-01-30T04:39:51.425Z,-1.60
2023-01-30T04:50:14.073Z,-1.70
2023-01-30T04:52:47.501Z,-1.80
2023-01-30T06:28:26.765Z,-1.80
2023-01-30T06:30:57.436Z,-1.80
2023-01-30T06:35:58.160Z,-1.80
2023-01-30T06:38:33.696Z,-1.80
2023-01-30T07:23:50.036Z,-1.60
2023-01-30T09:16:55.912Z,-0.90
2023-01-30T09:21:57.347Z,-0.90
2023-01-30T09:24:29.864Z,-1.00
2023-01-30T09:27:00.668Z,-0.90
2023-01-30T09:29:31.700Z,-0.90
2023-01-30T09:42:37.951Z,-1.00
2023-01-30T09:45:33.399Z,-1.00
2023-01-30T09:48:13.733Z,-0.90
2023-01-30T09:51:04.444Z,-1.20
2023-01-30T09:53:46.199Z,-2.40
2023-01-30T09:56:18.807Z,-0.80
2023-01-30T09:58:53.679Z,-0.80
2023-01-30T10:01:30.072Z,-0.80
2023-01-30T10:04:16.336Z,-0.70
2023-01-30T10:06:56.242Z,-0.70
2023-01-30T10:09:36.825Z,-0.70
2023-01-30T10:12:28.061Z,-0.70
2023-01-30T10:15:20.163Z,-0.70
2023-01-30T10:18:05.629Z,-0.70
2023-01-30T10:20:46.252Z,-0.60
2023-01-30T10:23:44.578Z,-0.60
2023-01-30T10:26:19.897Z,-0.60
2023-01-30T10:29:07.328Z,-0.60
2023-01-30T10:31:44.542Z,-0.60
2023-01-30T10:34:19.824Z,-0.60
2023-01-30T10:36:55.180Z,-0.50
2023-01-30T10:39:31.315Z,-0.40
2023-01-30T10:42:07.180Z,-0.40
2023-01-30T10:44:40.764Z,-0.40
2023-01-30T10:47:29.815Z,-0.40
2023-01-30T10:50:17.462Z,-0.40
2023-01-30T10:52:55.789Z,-0.20
2023-01-30T10:55:37.958Z,-1.80
2023-01-30T10:58:17.612Z,-0.10
2023-01-30T11:01:00.851Z,-0.10
2023-01-30T11:03:38.497Z,-0.10
2023-01-30T11:06:11.224Z,0.00
2023-01-30T11:08:41.334Z,0.00
2023-01-30T11:11:29.094Z,0.10
2023-01-30T11:14:07.338Z,0.10
2023-01-30T11:16:49.120Z,0.00
2023-01-30T11:19:22.710Z,0.00
2023-01-30T11:21:55.212Z,0.00
2023-01-30T11:24:31.291Z,0.00
2023-01-30T11:27:13.115Z,0.00
2023-01-30T11:29:43.100Z,0.00
2023-01-30T11:32:23.385Z,0.10
2023-01-30T11:35:14.327Z,0.10
2023-01-30T11:37:46.366Z,0.10
2023-01-30T11:40:28.461Z,0.20
2023-01-30T11:43:05.762Z,0.20
2023-01-30T11:45:41.333Z,0.20
2023-01-30T11:48:33.163Z,0.30
2023-01-30T11:51:12.613Z,0.30
2023-01-30T11:53:45.974Z,0.30
2023-01-30T11:56:21.063Z,0.20
2023-01-30T11:58:58.801Z,0.20
2023-01-30T12:01:31.137Z,0.30
2023-01-30T12:04:04.292Z,0.20
2023-01-30T12:06:36.804Z,0.20
2023-01-30T12:09:08.828Z,0.20
2023-01-30T12:11:47.795Z,0.20
2023-01-30T12:14:40.452Z,0.20
2023-01-30T12:17:19.595Z,0.30
2023-01-30T12:20:03.095Z,0.30
2023-01-30T12:22:41.730Z,0.40
2023-01-30T12:25:16.657Z,0.40
2023-01-30T12:30:36.020Z,0.50
2023-01-30T12:33:09.286Z,0.50
2023-01-30T12:35:56.855Z,0.50
2023-01-30T12:38:44.328Z,0.60
2023-01-30T12:41:27.463Z,0.50
2023-01-30T12:44:21.394Z,0.40
2023-01-30T12:47:01.926Z,0.40
2023-01-30T12:49:45.157Z,0.50
2023-01-30T12:52:41.897Z,0.50
2023-01-30T12:55:25.472Z,0.50
2023-01-30T12:58:02.141Z,0.50
2023-01-30T13:00:44.424Z,0.50
2023-01-30T13:03:32.324Z,0.50
2023-01-30T13:06:13.555Z,0.50
2023-01-30T13:09:03.030Z,0.50
2023-01-30T13:11:50.190Z,0.60
2023-01-30T13:14:29.688Z,0.60
2023-01-30T13:17:21.435Z,0.60
2023-01-30T13:20:00.640Z,0.60
2023-01-30T13:22:38.342Z,0.60
2023-01-30T13:25:25.903Z,0.60
2023-01-30T13:27:58.753Z,0.70
2023-01-30T13:30:30.281Z,0.70
2023-01-30T13:33:03.819Z,0.70
2023-01-30T13:35:37.433Z,0.80
2023-01-30T13:38:10.477Z,0.80
2023-01-30T13:40:46.295Z,0.90
2023-01-30T13:43:21.357Z,1.00
2023-01-30T13:45:54.420Z,1.00
2023-01-30T13:48:38.218Z,1.00
2023-01-30T13:51:24.956Z,1.00
2023-01-30T13:54:01.669Z,1.00
2023-01-30T13:56:43.621Z,1.00
2023-01-30T13:59:25.193Z,1.00
2023-01-30T14:02:20.800Z,1.10
2023-01-30T14:04:55.396Z,1.00
2023-01-30T14:07:30.375Z,1.00
2023-01-30T14:10:17.187Z,1.10
2023-01-30T14:12:52.161Z,1.10
2023-01-30T14:15:29.053Z,1.10
2023-01-30T14:18:06.073Z,1.00
2023-01-30T14:20:37.980Z,1.00
2023-01-30T14:23:21.917Z,1.00
2023-01-30T14:25:53.593Z,1.00
2023-01-30T14:28:54.645Z,1.10
2023-01-30T14:31:58.068Z,1.10
2023-01-30T14:34:50.777Z,1.10
2023-01-30T14:37:58.604Z,1.10
2023-01-30T14:40:40.150Z,1.20
2023-01-30T14:43:42.891Z,2.40
2023-01-30T14:46:54.736Z,1.10
2023-01-30T14:49:35.791Z,1.20
2023-01-30T14:52:06.703Z,1.20
2023-01-30T14:54:51.099Z,1.20
2023-01-30T14:57:27.639Z,1.10
2023-01-30T15:00:15.578Z,1.10
2023-01-30T15:02:53.863Z,0.80
2023-01-30T15:05:31.266Z,1.10
2023-01-30T15:08:07.012Z,1.10
2023-01-30T15:11:00.941Z,1.10
2023-01-30T15:13:47.436Z,1.00
2023-01-30T15:16:40.427Z,1.10
2023-01-30T15:19:34.186Z,1.10
2023-01-30T15:22:16.414Z,1.10
2023-01-30T15:25:15.330Z,1.10
2023-01-30T15:27:59.222Z,1.10
2023-01-30T15:30:44.072Z,1.10
2023-01-30T15:33:30.104Z,1.10
2023-01-30T15:36:21.316Z,1.10
2023-01-30T15:38:59.626Z,1.30
2023-01-30T15:41:29.949Z,1.30
2023-01-30T15:44:39.130Z,1.30
2023-01-30T15:47:28.767Z,1.30
2023-01-30T15:50:02.649Z,1.30
2023-01-30T15:52:45.142Z,1.30
2023-01-30T15:55:20.347Z,1.30
2023-01-30T15:57:57.040Z,1.30
2023-01-30T16:00:33.001Z,1.30
2023-01-30T16:03:08.932Z,1.40
2023-01-30T16:05:38.965Z,1.40
2023-01-30T16:08:24.971Z,1.30
2023-01-30T16:10:55.492Z,1.30
2023-01-30T16:13:26.947Z,1.30
2023-01-30T16:16:00.660Z,1.30
2023-01-30T16:18:36.084Z,1.20
2023-01-30T16:21:08.222Z,1.20
2023-01-30T16:23:44.392Z,1.20
2023-01-30T16:26:21.887Z,1.30
2023-01-30T16:28:53.848Z,1.30
2023-01-30T16:31:26.106Z,1.20
2023-01-30T16:33:56.224Z,1.20
2023-01-30T16:36:35.690Z,1.30
2023-01-30T16:39:31.238Z,1.30
2023-01-30T16:42:02.544Z,1.20
2023-01-30T16:44:33.437Z,1.30
2023-01-30T16:47:06.017Z,1.30
2023-01-30T16:49:45.468Z,1.20
2023-01-30T16:52:23.499Z,1.20
2023-01-30T16:54:58.843Z,1.20
2023-01-30T16:57:36.435Z,1.20
2023-01-30T17:00:10.293Z,1.20
2023-01-30T17:02:43.520Z,1.20
2023-01-30T17:05:24.857Z,1.20
2023-01-30T17:07:56.574Z,1.20
2023-01-30T17:11:02.627Z,1.20
2023-01-30T17:13:41.681Z,1.30
2023-01-30T17:16:30.063Z,1.20
2023-01-30T17:19:01.061Z,1.20
2023-01-30T17:21:34.084Z,1.20
2023-01-30T17:24:06.280Z,1.20
2023-01-30T17:26:38.379Z,1.20
2023-01-30T17:29:23.367Z,1.20
2023-01-30T17:31:55.224Z,1.30
2023-01-30T17:34:27.831Z,1.20
2023-01-30T17:36:58.763Z,1.20
2023-01-30T17:44:31.837Z,1.20
2023-01-30T17:47:01.900Z,1.20
2023-01-30T17:52:02.200Z,1.20
2023-01-30T17:54:32.647Z,1.20
2023-01-30T17:57:04.944Z,1.20
2023-01-30T17:59:37.653Z,1.40
2023-01-30T18:02:07.943Z,1.40
2023-01-30T18:04:40.027Z,1.30
2023-01-30T18:07:14.178Z,1.40
2023-01-30T18:09:44.105Z,1.40
2023-01-30T18:12:14.126Z,1.40
2023-01-30T18:14:46.626Z,1.40
2023-01-30T18:17:16.750Z,1.30
2023-01-30T18:19:46.629Z,1.30
2023-01-30T18:22:16.616Z,1.30
2023-01-30T18:24:46.615Z,1.40
2023-01-30T18:27:16.618Z,1.30
2023-01-30T18:29:49.325Z,1.50
2023-01-30T18:32:19.206Z,1.40
2023-01-30T18:34:49.091Z,1.40
2023-01-30T18:37:18.995Z,1.50
2023-01-30T18:39:48.879Z,1.40
2023-01-30T18:42:18.849Z,1.40
2023-01-30T18:44:51.422Z,1.30
2023-01-30T18:52:22.171Z,1.40
2023-01-30T18:54:52.547Z,1.40
2023-01-30T18:57:22.457Z,1.40
2023-01-30T18:59:54.923Z,3.60
2023-01-30T19:02:24.937Z,1.40
2023-01-30T19:04:54.912Z,1.40
2023-01-30T19:07:24.986Z,1.40
2023-01-30T19:09:54.939Z,1.50
2023-01-30T19:15:10.965Z,1.50
2023-01-30T19:17:40.922Z,1.50
2023-01-30T19:20:13.255Z,1.40
2023-01-30T19:22:43.212Z,1.40
2023-01-30T19:25:13.273Z,1.40
2023-01-30T19:27:44.220Z,1.40
2023-01-30T19:30:18.317Z,1.30
2023-01-30T19:35:19.265Z,1.30
2023-01-30T19:37:49.460Z,2.90
2023-01-30T19:40:20.183Z,1.40
2023-01-30T19:42:54.639Z,1.50
2023-01-30T19:45:30.337Z,1.40
2023-01-30T19:48:00.344Z,1.40
2023-01-30T19:50:30.389Z,1.40
2023-01-30T19:53:00.403Z,1.00
2023-01-30T19:55:30.362Z,1.30
2023-01-30T19:58:00.421Z,1.30
2023-01-30T20:00:33.001Z,1.30
2023-01-30T20:03:03.107Z,1.30
2023-01-30T20:05:33.005Z,1.30
2023-01-30T20:10:33.118Z,1.30
2023-01-30T20:13:04.101Z,1.30
2023-01-30T20:15:36.786Z,1.30
2023-01-30T20:18:07.125Z,1.30
2023-01-30T20:20:37.123Z,1.40
2023-01-30T20:23:07.078Z,1.40
2023-01-30T20:25:38.493Z,1.40
2023-01-30T20:28:08.801Z,1.30
2023-01-30T20:30:41.842Z,1.30
2023-01-30T20:35:42.141Z,1.20
2023-01-30T20:43:12.652Z,1.20
2023-01-30T20:45:45.124Z,1.20
2023-01-30T20:48:15.048Z,1.30
2023-01-30T20:50:45.124Z,1.40
2023-01-30T20:55:45.717Z,1.30
2023-01-30T20:58:15.615Z,1.40
2023-01-30T21:00:48.204Z,1.30
2023-01-30T21:03:18.161Z,1.40
2023-01-30T21:05:48.592Z,1.30
2023-01-30T21:08:18.598Z,2.50
2023-01-30T21:10:48.556Z,1.40
2023-01-30T21:13:18.556Z,1.50
2023-01-30T21:15:51.134Z,1.50
2023-01-30T21:18:21.029Z,1.50
2023-01-30T21:20:52.243Z,1.40
2023-01-30T21:23:22.318Z,1.50
2023-01-30T21:30:55.521Z,1.40
2023-01-30T21:33:25.564Z,1.50
2023-01-30T21:35:55.527Z,1.50
2023-01-30T21:38:38.002Z,1.40
2023-01-30T21:41:20.566Z,1.40
2023-01-30T21:43:50.974Z,1.50
2023-01-30T21:46:23.464Z,1.50
2023-01-30T21:48:53.554Z,1.50
2023-01-30T21:51:25.313Z,1.40
2023-01-30T21:53:56.062Z,1.40
2023-01-30T21:56:26.398Z,1.40
2023-01-30T21:58:58.653Z,1.40
2023-01-30T22:01:32.218Z,1.40
2023-01-30T22:04:02.717Z,1.40
2023-01-30T22:06:32.769Z,1.40
2023-01-30T22:09:04.194Z,1.40
2023-01-30T22:11:34.637Z,1.50
2023-01-30T22:14:04.587Z,1.50
2023-01-30T22:16:37.405Z,1.40
2023-01-30T22:19:07.778Z,1.40
2023-01-30T22:21:40.116Z,1.50
2023-01-30T22:24:12.096Z,1.50
2023-01-30T22:26:42.099Z,1.40
2023-01-30T22:29:12.234Z,1.40
2023-01-30T22:31:45.168Z,1.50
2023-01-30T22:34:15.225Z,1.40
2023-01-30T22:36:45.247Z,1.40
2023-01-30T22:39:15.206Z,1.50
2023-01-30T22:41:45.082Z,1.40
2023-01-30T22:44:15.005Z,1.40
2023-01-30T22:46:47.549Z,2.50
2023-01-30T22:49:17.517Z,1.40
2023-01-30T22:51:47.491Z,1.40
2023-01-30T22:54:18.876Z,1.40
2023-01-30T22:56:51.506Z,1.40
2023-01-30T22:59:21.837Z,1.40
2023-01-30T23:01:54.379Z,1.40
2023-01-30T23:04:26.454Z,1.40
2023-01-30T23:06:56.494Z,1.50
2023-01-30T23:09:26.901Z,1.50
2023-01-30T23:12:11.583Z,1.40
2023-01-30T23:14:43.026Z,1.40
2023-01-30T23:17:28.213Z,1.30
2023-01-30T23:19:58.983Z,1.40
2023-01-30T23:22:29.021Z,1.30
2023-01-30T23:24:58.925Z,1.40
2023-01-30T23:27:28.990Z,1.40
2023-01-30T23:29:58.930Z,1.40
2023-01-30T23:32:31.526Z,1.50
2023-01-30T23:35:01.560Z,1.50
2023-01-30T23:37:43.735Z,1.50
2023-01-30T23:40:14.940Z,1.40
2023-01-30T23:42:44.981Z,1.40
2023-01-30T23:45:14.963Z,1.30
2023-01-30T23:47:47.508Z,1.40
2023-01-30T23:50:17.678Z,1.50
2023-01-30T23:52:47.853Z,1.40
2023-01-30T23:55:18.675Z,1.40
2023-01-30T23:57:48.756Z,1.40
